createdAt,value
2018-02-24T00:00:38.838Z,18.90
2018-02-24T00:03:08.011Z,20.47
2018-02-24T00:05:36.372Z,19.57
2018-02-24T00:08:04.736Z,17.60
2018-02-24T00:10:33.938Z,20.33
2018-02-24T00:13:02.337Z,21.30
2018-02-24T00:15:30.695Z,15.83
2018-02-24T00:17:59.074Z,22.00
2018-02-24T00:20:28.514Z,21.00
2018-02-24T00:22:56.891Z,17.03
2018-02-24T00:25:25.259Z,18.20
2018-02-24T00:27:53.623Z,20.77
2018-02-24T00:30:21.993Z,18.30
2018-02-24T00:32:50.388Z,20.43
2018-02-24T00:35:18.746Z,23.43
2018-02-24T00:37:47.099Z,21.70
2018-02-24T00:40:16.237Z,20.90
2018-02-24T00:42:44.583Z,16.53
2018-02-24T00:45:13.711Z,19.40
2018-02-24T00:47:42.084Z,18.20
2018-02-24T00:50:10.463Z,20.57
2018-02-24T00:52:38.849Z,21.70
2018-02-24T00:55:08.276Z,19.23
2018-02-24T00:57:36.520Z,20.03
2018-02-24T01:00:04.553Z,26.10
2018-02-24T01:02:33.708Z,20.97
2018-02-24T01:05:02.151Z,21.63
2018-02-24T01:07:31.382Z,23.60
2018-02-24T01:09:59.811Z,25.67
2018-02-24T01:12:28.943Z,21.30
2018-02-24T01:14:57.308Z,23.40
2018-02-24T01:17:26.282Z,20.80
2018-02-24T01:19:55.407Z,25.37
2018-02-24T01:22:23.987Z,23.27
2018-02-24T01:24:52.332Z,24.00
2018-02-24T01:27:21.474Z,22.13
2018-02-24T01:29:49.857Z,24.07
2018-02-24T01:32:18.223Z,25.30
2018-02-24T01:34:46.395Z,25.87
2018-02-24T01:37:14.777Z,23.03
2018-02-24T01:39:43.151Z,23.63
2018-02-24T01:42:11.815Z,25.10
2018-02-24T01:44:40.959Z,25.70
2018-02-24T01:47:09.370Z,22.37
2018-02-24T01:49:38.511Z,25.93
2018-02-24T01:52:06.923Z,30.00
2018-02-24T01:54:35.283Z,23.73
2018-02-24T01:57:03.641Z,28.10
2018-02-24T01:59:32.183Z,31.70
2018-02-24T02:02:02.060Z,29.80
2018-02-24T02:04:30.432Z,29.53
2018-02-24T02:06:58.799Z,27.27
2018-02-24T02:09:27.178Z,25.23
2018-02-24T02:11:55.663Z,31.83
2018-02-24T02:14:24.034Z,35.07
2018-02-24T02:16:52.869Z,26.73
2018-02-24T02:19:22.214Z,29.47
2018-02-24T02:21:52.315Z,29.97
2018-02-24T02:24:21.440Z,31.27
2018-02-24T02:26:49.886Z,28.10
2018-02-24T02:29:18.256Z,34.20
2018-02-24T02:31:47.391Z,32.10
2018-02-24T02:34:15.736Z,29.97
2018-02-24T02:36:44.104Z,30.37
2018-02-24T02:39:13.438Z,28.00
2018-02-24T02:41:41.795Z,28.63
2018-02-24T02:44:10.884Z,31.57
2018-02-24T02:46:40.024Z,36.70
2018-02-24T02:49:08.404Z,33.10
2018-02-24T02:51:36.779Z,35.87
2018-02-24T02:54:05.171Z,32.83
2018-02-24T02:56:33.535Z,32.53
2018-02-24T02:59:02.047Z,32.20
2018-02-24T03:01:30.439Z,29.70
2018-02-24T03:03:59.008Z,34.83
2018-02-24T03:06:27.387Z,32.47
2018-02-24T03:08:55.673Z,35.37
2018-02-24T03:11:24.830Z,30.40
2018-02-24T03:13:53.188Z,30.53
2018-02-24T03:16:21.542Z,34.87
2018-02-24T03:18:49.899Z,33.23
2018-02-24T03:21:19.035Z,30.13
2018-02-24T03:23:47.403Z,34.90
2018-02-24T03:26:15.754Z,33.23
2018-02-24T03:28:44.888Z,32.70
2018-02-24T03:31:13.251Z,31.40
2018-02-24T03:33:41.625Z,33.33
2018-02-24T03:36:10.072Z,38.13
2018-02-24T03:38:38.496Z,29.87
2018-02-24T03:41:06.771Z,36.03
2018-02-24T03:43:35.286Z,34.37
2018-02-24T03:46:04.298Z,28.60
2018-02-24T03:48:32.670Z,28.40
2018-02-24T03:51:00.850Z,34.53
2018-02-24T03:53:29.216Z,37.97
2018-02-24T03:55:57.506Z,35.40
2018-02-24T03:58:25.890Z,32.57
2018-02-24T04:00:54.265Z,31.77
2018-02-24T04:03:22.799Z,33.93
2018-02-24T04:05:50.982Z,36.10
2018-02-24T04:08:19.338Z,28.63
2018-02-24T04:10:47.748Z,29.00
2018-02-24T04:13:16.240Z,30.20
2018-02-24T04:15:44.624Z,31.00
2018-02-24T04:18:12.984Z,30.13
2018-02-24T04:20:41.348Z,32.63
2018-02-24T04:23:12.835Z,34.10
2018-02-24T04:25:41.268Z,31.00
2018-02-24T04:28:09.618Z,30.30
2018-02-24T04:30:38.748Z,28.50
2018-02-24T04:33:07.103Z,33.27
2018-02-24T04:35:35.469Z,28.53
2018-02-24T04:38:04.610Z,29.37
2018-02-24T04:40:32.975Z,31.50
2018-02-24T04:43:01.348Z,35.03
2018-02-24T04:45:29.702Z,31.03
2018-02-24T04:47:58.834Z,28.50
2018-02-24T04:50:27.176Z,34.27
2018-02-24T04:52:55.592Z,32.70
2018-02-24T04:55:24.182Z,30.67
2018-02-24T04:57:52.523Z,31.30
2018-02-24T05:00:20.892Z,32.63
2018-02-24T05:02:49.273Z,28.20
2018-02-24T05:05:17.624Z,33.00
2018-02-24T05:07:46.155Z,29.23
2018-02-24T05:10:14.524Z,30.67
2018-02-24T05:12:42.883Z,30.37
2018-02-24T05:15:12.015Z,28.87
2018-02-24T05:17:40.383Z,36.03
2018-02-24T05:20:08.755Z,28.00
2018-02-24T05:22:37.103Z,29.33
2018-02-24T05:25:06.337Z,30.83
2018-02-24T05:27:34.755Z,30.17
2018-02-24T05:30:03.559Z,28.90
2018-02-24T05:32:31.911Z,29.87
2018-02-24T05:35:00.310Z,27.40
2018-02-24T05:37:28.656Z,25.50
2018-02-24T05:39:57.024Z,26.47
2018-02-24T05:42:25.589Z,28.20
2018-02-24T05:44:53.945Z,27.80
2018-02-24T05:47:23.067Z,28.00
2018-02-24T05:49:51.454Z,24.67
2018-02-24T05:52:19.981Z,28.47
2018-02-24T05:54:48.340Z,30.00
2018-02-24T05:57:16.720Z,28.77
2018-02-24T05:59:45.074Z,29.23
2018-02-24T06:02:13.276Z,27.70
2018-02-24T06:04:41.624Z,23.07
2018-02-24T06:07:10.167Z,26.33
2018-02-24T06:09:43.829Z,26.60
2018-02-24T06:12:12.214Z,29.53
2018-02-24T06:14:40.565Z,27.53
2018-02-24T06:17:09.144Z,29.07
2018-02-24T06:19:37.509Z,27.40
2018-02-24T06:22:05.883Z,25.90
2018-02-24T06:24:34.245Z,29.40
2018-02-24T06:27:02.541Z,25.20
2018-02-24T06:29:31.246Z,27.30
2018-02-24T06:31:59.440Z,32.93
2018-02-24T06:34:27.672Z,28.20
2018-02-24T06:36:56.035Z,24.67
2018-02-24T06:39:24.327Z,23.97
2018-02-24T06:41:52.732Z,25.43
2018-02-24T06:44:21.096Z,29.50
2018-02-24T06:46:49.454Z,27.07
2018-02-24T06:49:17.931Z,27.23
2018-02-24T06:51:46.463Z,24.90
2018-02-24T06:54:14.839Z,28.10
2018-02-24T06:56:43.246Z,27.63
2018-02-24T06:59:12.598Z,25.20
2018-02-24T07:01:40.971Z,30.50
2018-02-24T07:04:09.362Z,30.00
2018-02-24T07:06:38.596Z,28.27
2018-02-24T07:09:07.026Z,23.70
2018-02-24T07:11:35.553Z,29.10
2018-02-24T07:14:04.321Z,29.00
2018-02-24T07:16:32.723Z,28.77
2018-02-24T07:19:01.151Z,30.80
2018-02-24T07:21:29.551Z,25.57
2018-02-24T07:23:57.913Z,30.60
2018-02-24T07:26:27.007Z,28.00
2018-02-24T07:28:55.506Z,32.00
2018-02-24T07:31:23.882Z,34.30
2018-02-24T07:33:52.281Z,28.53
2018-02-24T07:36:20.880Z,26.60
2018-02-24T07:38:50.019Z,28.80
2018-02-24T07:41:18.546Z,31.20
2018-02-24T07:43:46.892Z,27.00
2018-02-24T07:46:15.421Z,29.87
2018-02-24T07:48:44.574Z,30.33
2018-02-24T07:51:12.940Z,26.53
2018-02-24T07:53:41.168Z,28.20
2018-02-24T07:56:10.336Z,32.00
2018-02-24T07:58:38.919Z,27.73
2018-02-24T08:01:07.311Z,31.00
2018-02-24T08:03:36.639Z,27.97
2018-02-24T08:06:05.057Z,29.30
2018-02-24T08:08:33.444Z,27.93
2018-02-24T08:11:01.807Z,26.70
2018-02-24T08:13:30.197Z,29.00
2018-02-24T08:15:58.561Z,25.87
2018-02-24T08:18:26.934Z,23.03
2018-02-24T08:20:55.304Z,25.17
2018-02-24T08:23:23.695Z,24.23
2018-02-24T08:25:52.062Z,23.70
2018-02-24T08:28:21.415Z,22.50
2018-02-24T08:30:50.655Z,25.67
2018-02-24T08:33:19.173Z,25.23
2018-02-24T08:35:47.524Z,22.37
2018-02-24T08:38:15.958Z,24.40
2018-02-24T08:40:44.925Z,19.77
2018-02-24T08:43:13.495Z,18.73
2018-02-24T08:45:41.860Z,23.23
2018-02-24T08:48:10.256Z,21.80
2018-02-24T08:50:38.904Z,19.10
2018-02-24T08:53:07.262Z,20.07
2018-02-24T08:55:36.402Z,20.70
2018-02-24T08:58:04.734Z,17.17
2018-02-24T09:00:33.886Z,17.40
2018-02-24T09:03:02.883Z,18.47
2018-02-24T09:05:31.274Z,19.23
2018-02-24T09:07:59.627Z,17.50
2018-02-24T09:10:28.728Z,19.90
2018-02-24T09:12:57.081Z,20.03
2018-02-24T09:15:25.440Z,21.70
2018-02-24T09:17:53.803Z,19.13
2018-02-24T09:20:22.939Z,16.17
2018-02-24T09:22:51.333Z,20.13
2018-02-24T09:25:19.685Z,16.17
2018-02-24T09:27:48.068Z,15.63
2018-02-24T09:30:16.421Z,16.20
2018-02-24T09:32:45.572Z,16.30
2018-02-24T09:35:14.037Z,16.00
2018-02-24T09:37:42.410Z,15.40
2018-02-24T09:40:10.814Z,13.90
2018-02-24T09:42:39.172Z,15.77
2018-02-24T09:45:07.758Z,17.77
2018-02-24T09:47:36.110Z,14.33
2018-02-24T09:50:04.193Z,16.20
2018-02-24T09:52:32.563Z,16.97
2018-02-24T09:55:00.906Z,15.50
2018-02-24T09:57:30.049Z,15.23
2018-02-24T09:59:58.393Z,16.50
2018-02-24T10:02:26.759Z,16.90
2018-02-24T10:04:55.950Z,16.03
2018-02-24T10:07:25.099Z,14.73
2018-02-24T10:09:53.454Z,12.97
2018-02-24T10:12:22.060Z,17.60
2018-02-24T10:14:50.584Z,17.30
2018-02-24T10:17:19.712Z,16.23
2018-02-24T10:19:48.092Z,13.40
2018-02-24T10:22:16.615Z,15.33
2018-02-24T10:24:45.897Z,16.63
2018-02-24T10:27:14.888Z,15.60
2018-02-24T10:29:43.269Z,17.60
2018-02-24T10:32:11.959Z,19.10
2018-02-24T10:34:40.504Z,14.20
2018-02-24T10:37:08.858Z,17.77
2018-02-24T10:39:37.413Z,15.30
2018-02-24T10:42:05.550Z,18.27
2018-02-24T10:44:34.874Z,15.00
2018-02-24T10:47:03.227Z,17.20
2018-02-24T10:49:31.577Z,15.00
2018-02-24T10:52:00.696Z,15.50
2018-02-24T10:54:29.055Z,14.17
2018-02-24T10:56:57.404Z,17.40
2018-02-24T10:59:25.876Z,14.43
2018-02-24T11:01:54.290Z,15.60
2018-02-24T11:04:23.483Z,13.23
2018-02-24T11:06:52.615Z,18.43
2018-02-24T11:09:21.107Z,16.73
2018-02-24T11:11:49.641Z,23.70
2018-02-24T11:14:18.758Z,20.43
2018-02-24T11:16:47.109Z,22.97
2018-02-24T11:19:16.982Z,16.23
2018-02-24T11:21:45.359Z,17.40
2018-02-24T11:24:13.524Z,16.80
2018-02-24T11:26:41.980Z,16.97
2018-02-24T11:29:10.334Z,15.70
2018-02-24T11:31:40.123Z,17.37
2018-02-24T11:34:09.987Z,17.43
2018-02-24T11:36:38.415Z,14.40
2018-02-24T11:39:06.876Z,12.77
2018-02-24T11:41:35.256Z,16.60
2018-02-24T11:44:03.510Z,13.53
2018-02-24T11:46:31.919Z,16.13
2018-02-24T11:49:00.545Z,17.87
2018-02-24T11:51:28.920Z,15.17
2018-02-24T11:53:57.304Z,14.60
2018-02-24T11:56:25.656Z,17.70
2018-02-24T11:58:54.820Z,15.07
2018-02-24T12:01:23.442Z,16.40
2018-02-24T12:03:52.605Z,15.23
2018-02-24T12:06:21.071Z,14.60
2018-02-24T12:08:49.537Z,14.80
2018-02-24T12:11:18.015Z,17.00
2018-02-24T12:13:47.066Z,13.73
2018-02-24T12:16:15.733Z,15.43
2018-02-24T12:18:44.170Z,13.57
2018-02-24T12:21:12.845Z,13.60
2018-02-24T12:23:41.204Z,13.17
2018-02-24T12:26:10.492Z,12.83
2018-02-24T12:28:40.005Z,13.30
2018-02-24T12:31:09.165Z,14.07
2018-02-24T12:33:37.659Z,17.43
2018-02-24T12:36:06.043Z,16.90
2018-02-24T12:38:34.522Z,14.10
2018-02-24T12:41:02.911Z,12.73
2018-02-24T12:43:32.067Z,13.60
2018-02-24T12:46:00.918Z,14.57
2018-02-24T12:48:29.423Z,14.70
2018-02-24T12:50:57.840Z,13.00
2018-02-24T12:53:26.343Z,15.00
2018-02-24T12:55:55.537Z,21.43
2018-02-24T12:58:24.836Z,16.10
2018-02-24T13:00:54.082Z,19.43
2018-02-24T13:03:22.684Z,12.57
2018-02-24T13:05:51.220Z,11.97
2018-02-24T13:08:19.594Z,12.53
2018-02-24T13:10:47.980Z,12.10
2018-02-24T13:13:17.099Z,12.90
2018-02-24T13:15:45.470Z,12.27
2018-02-24T13:18:13.838Z,14.20
2018-02-24T13:20:42.326Z,12.87
2018-02-24T13:23:11.338Z,11.87
2018-02-24T13:25:39.720Z,13.10
2018-02-24T13:28:08.247Z,11.83
2018-02-24T13:30:37.206Z,9.60
2018-02-24T13:33:06.222Z,17.67
2018-02-24T13:35:35.152Z,12.90
2018-02-24T13:38:03.527Z,10.77
2018-02-24T13:40:31.703Z,12.13
2018-02-24T13:43:00.221Z,11.40
2018-02-24T13:45:28.783Z,10.83
2018-02-24T13:47:56.952Z,11.00
2018-02-24T13:50:26.044Z,13.60
2018-02-24T13:52:54.399Z,9.40
2018-02-24T13:55:22.763Z,12.40
2018-02-24T13:57:52.032Z,9.10
2018-02-24T14:00:20.727Z,9.20
2018-02-24T14:02:49.112Z,9.60
2018-02-24T14:05:18.392Z,12.30
2018-02-24T14:07:46.765Z,9.23
2018-02-24T14:10:15.249Z,9.97
2018-02-24T14:12:43.479Z,9.00
2018-02-24T14:15:11.834Z,11.43
2018-02-24T14:17:40.964Z,13.87
2018-02-24T14:20:10.307Z,9.00
2018-02-24T14:22:39.586Z,7.70
2018-02-24T14:25:08.017Z,8.00
2018-02-24T14:27:36.700Z,9.60
2018-02-24T14:30:05.843Z,8.10
2018-02-24T14:32:34.482Z,7.60
2018-02-24T14:35:02.854Z,11.00
2018-02-24T14:37:31.207Z,8.90
2018-02-24T14:39:59.746Z,8.57
2018-02-24T14:42:28.243Z,9.43
2018-02-24T14:44:56.614Z,8.50
2018-02-24T14:47:25.117Z,8.90
2018-02-24T14:49:53.479Z,7.93
2018-02-24T14:52:22.173Z,6.57
2018-02-24T14:54:50.546Z,8.40
2018-02-24T14:57:18.924Z,9.20
2018-02-24T14:59:47.361Z,6.97
2018-02-24T15:02:15.736Z,7.10
2018-02-24T15:04:44.098Z,7.90
2018-02-24T15:07:13.280Z,8.80
2018-02-24T15:09:43.347Z,12.30
2018-02-24T15:12:11.721Z,7.07
2018-02-24T15:14:39.996Z,7.57
2018-02-24T15:17:08.309Z,6.87
2018-02-24T15:19:36.664Z,9.43
2018-02-24T15:22:04.859Z,10.40
2018-02-24T15:24:33.698Z,8.60
2018-02-24T15:27:02.083Z,8.57
2018-02-24T15:29:30.438Z,7.53
2018-02-24T15:31:59.547Z,6.90
2018-02-24T15:34:27.907Z,6.57
2018-02-24T15:36:56.845Z,8.03
2018-02-24T15:39:25.249Z,9.30
2018-02-24T15:41:53.414Z,16.00
2018-02-24T15:44:21.866Z,7.00
2018-02-24T15:46:50.336Z,6.57
2018-02-24T15:49:18.698Z,11.73
2018-02-24T15:51:47.807Z,9.23
2018-02-24T15:54:16.246Z,10.70
2018-02-24T15:56:45.397Z,8.90
2018-02-24T15:59:14.045Z,10.43
2018-02-24T16:01:43.205Z,10.03
2018-02-24T16:04:11.590Z,11.60
2018-02-24T16:06:40.152Z,8.37
2018-02-24T16:09:08.517Z,9.00
2018-02-24T16:11:36.868Z,13.33
2018-02-24T16:14:05.996Z,9.27
2018-02-24T16:16:34.583Z,10.30
2018-02-24T16:19:02.813Z,7.70
2018-02-24T16:21:32.153Z,11.67
2018-02-24T16:24:00.703Z,9.53
2018-02-24T16:26:29.117Z,13.27
2018-02-24T16:28:57.457Z,10.10
2018-02-24T16:31:26.615Z,10.23
2018-02-24T16:33:54.963Z,9.93
2018-02-24T16:36:23.359Z,9.10
2018-02-24T16:38:51.723Z,9.07
2018-02-24T16:41:20.131Z,8.13
2018-02-24T16:43:48.569Z,11.10
2018-02-24T16:46:17.127Z,16.40
2018-02-24T16:48:46.260Z,15.00
2018-02-24T16:51:14.845Z,14.30
2018-02-24T16:53:43.232Z,16.00
2018-02-24T16:56:11.587Z,13.40
2018-02-24T16:58:39.965Z,12.43
2018-02-24T17:01:08.359Z,12.93
2018-02-24T17:03:36.912Z,14.00
2018-02-24T17:06:05.280Z,12.77
2018-02-24T17:08:34.410Z,13.20
2018-02-24T17:11:02.782Z,17.57
2018-02-24T17:13:31.139Z,11.40
2018-02-24T17:15:59.582Z,13.77
2018-02-24T17:18:28.156Z,11.30
2018-02-24T17:20:56.572Z,11.13
2018-02-24T17:23:25.404Z,12.20
2018-02-24T17:25:53.764Z,12.67
2018-02-24T17:28:22.123Z,16.93
2018-02-24T17:30:50.480Z,15.37
2018-02-24T17:33:19.635Z,14.20
2018-02-24T17:35:47.998Z,14.63
2018-02-24T17:38:16.192Z,13.20
2018-02-24T17:40:44.552Z,13.60
2018-02-24T17:43:13.076Z,14.10
2018-02-24T17:45:41.425Z,11.83
2018-02-24T17:48:09.792Z,11.70
2018-02-24T17:50:37.963Z,12.30
2018-02-24T17:53:06.315Z,11.33
2018-02-24T17:55:34.771Z,13.07
2018-02-24T17:58:03.920Z,10.63
2018-02-24T18:00:32.316Z,9.90
2018-02-24T18:03:00.515Z,9.87
2018-02-24T18:05:28.943Z,9.67
2018-02-24T18:07:57.292Z,10.77
2018-02-24T18:10:25.711Z,8.53
2018-02-24T18:12:54.095Z,9.40
2018-02-24T18:15:22.732Z,9.20
2018-02-24T18:17:51.100Z,10.20
2018-02-24T18:20:20.208Z,8.20
2018-02-24T18:22:48.640Z,9.20
2018-02-24T18:25:17.464Z,15.17
2018-02-24T18:27:46.590Z,9.77
2018-02-24T18:30:14.964Z,9.60
2018-02-24T18:32:44.096Z,10.30
2018-02-24T18:35:12.552Z,8.37
2018-02-24T18:37:40.910Z,9.60
2018-02-24T18:40:09.293Z,8.23
2018-02-24T18:42:37.700Z,7.33
2018-02-24T18:45:06.039Z,7.33
2018-02-24T18:47:34.415Z,7.10
2018-02-24T18:50:02.782Z,9.43
2018-02-24T18:52:32.254Z,8.57
2018-02-24T18:55:00.602Z,10.43
2018-02-24T18:57:28.786Z,7.50
2018-02-24T18:59:57.137Z,5.63
2018-02-24T19:02:25.509Z,5.93
2018-02-24T19:04:53.880Z,6.90
2018-02-24T19:07:21.907Z,5.70
2018-02-24T19:09:50.320Z,6.53
2018-02-24T19:12:19.485Z,9.23
2018-02-24T19:14:47.676Z,5.00
2018-02-24T19:17:16.020Z,5.80
2018-02-24T19:19:44.287Z,4.60
2018-02-24T19:22:13.035Z,4.67
2018-02-24T19:24:42.153Z,4.10
2018-02-24T19:27:10.686Z,4.77
2018-02-24T19:29:38.863Z,8.07
2018-02-24T19:32:08.059Z,4.23
2018-02-24T19:34:36.444Z,4.20
2018-02-24T19:37:05.556Z,4.90
2018-02-24T19:39:34.700Z,6.27
2018-02-24T19:42:03.057Z,4.30
2018-02-24T19:44:31.407Z,5.00
2018-02-24T19:47:00.552Z,6.30
2018-02-24T19:49:28.913Z,4.43
2018-02-24T19:51:57.307Z,4.07
2018-02-24T19:54:25.659Z,4.10
2018-02-24T19:56:54.016Z,5.53
2018-02-24T19:59:22.422Z,4.07
2018-02-24T20:01:50.872Z,3.53
2018-02-24T20:04:20.224Z,4.77
2018-02-24T20:06:48.603Z,3.80
2018-02-24T20:09:17.111Z,5.90
2018-02-24T20:11:46.275Z,3.90
2018-02-24T20:14:14.796Z,3.67
2018-02-24T20:16:43.951Z,3.70
2018-02-24T20:19:12.411Z,4.00
2018-02-24T20:21:40.749Z,4.10
2018-02-24T20:24:09.685Z,5.33
2018-02-24T20:26:38.044Z,5.20
2018-02-24T20:29:06.755Z,9.80
2018-02-24T20:31:35.305Z,4.63
2018-02-24T20:34:04.459Z,4.13
2018-02-24T20:36:33.027Z,5.17
2018-02-24T20:39:01.525Z,5.73
2018-02-24T20:41:30.079Z,4.30
2018-02-24T20:43:58.458Z,4.60
2018-02-24T20:46:26.794Z,4.07
2018-02-24T20:48:55.900Z,4.67
2018-02-24T20:51:24.267Z,3.93
2018-02-24T20:53:53.406Z,4.23
2018-02-24T20:56:21.760Z,4.33
2018-02-24T20:58:50.267Z,3.87
2018-02-24T21:01:18.662Z,4.53
2018-02-24T21:03:47.078Z,4.20
2018-02-24T21:06:16.030Z,3.90
2018-02-24T21:08:44.417Z,4.87
2018-02-24T21:11:12.776Z,4.50
2018-02-24T21:13:41.150Z,4.00
2018-02-24T21:16:09.782Z,4.20
2018-02-24T21:18:39.092Z,8.30
2018-02-24T21:21:07.496Z,4.10
2018-02-24T21:23:35.854Z,3.90
2018-02-24T21:26:04.249Z,3.93
2018-02-24T21:28:32.595Z,4.30
2018-02-24T21:31:01.735Z,4.37
2018-02-24T21:33:30.170Z,3.93
2018-02-24T21:35:59.140Z,4.27
2018-02-24T21:38:27.432Z,3.90
2018-02-24T21:40:56.761Z,4.70
2018-02-24T21:43:25.396Z,4.50
2018-02-24T21:45:53.771Z,4.20
2018-02-24T21:48:22.202Z,5.33
2018-02-24T21:50:50.887Z,4.30
2018-02-24T21:53:19.274Z,3.70
2018-02-24T21:55:47.635Z,4.47
2018-02-24T21:58:16.033Z,4.47
2018-02-24T22:00:44.412Z,4.20
2018-02-24T22:03:13.084Z,4.40
2018-02-24T22:05:41.489Z,4.53
2018-02-24T22:08:09.855Z,4.40
2018-02-24T22:10:38.442Z,4.93
2018-02-24T22:13:07.304Z,7.90
2018-02-24T22:15:36.451Z,5.13
2018-02-24T22:18:05.007Z,4.00
2018-02-24T22:20:33.348Z,4.20
2018-02-24T22:23:02.739Z,4.37
2018-02-24T22:25:31.903Z,4.80
2018-02-24T22:28:00.408Z,4.23
2018-02-24T22:30:28.589Z,4.43
2018-02-24T22:32:57.737Z,4.30
2018-02-24T22:35:26.394Z,6.93
2018-02-24T22:37:54.793Z,4.83
2018-02-24T22:40:23.483Z,5.80
2018-02-24T22:42:51.846Z,6.93
2018-02-24T22:45:20.428Z,9.50
2018-02-24T22:47:54.382Z,5.10
2018-02-24T22:50:22.754Z,4.67
2018-02-24T22:52:51.248Z,4.83
2018-02-24T22:55:19.746Z,4.93
2018-02-24T22:57:48.976Z,5.13
2018-02-24T23:00:17.163Z,6.60
2018-02-24T23:02:45.569Z,4.70
2018-02-24T23:05:13.969Z,7.90
2018-02-24T23:07:43.191Z,4.80
2018-02-24T23:10:11.706Z,4.37
2018-02-24T23:12:40.170Z,6.13
2018-02-24T23:15:08.697Z,4.80
2018-02-24T23:17:37.213Z,4.70
2018-02-24T23:20:05.591Z,5.10
2018-02-24T23:22:34.136Z,4.27
2018-02-24T23:25:02.713Z,8.70
2018-02-24T23:27:31.831Z,4.30
2018-02-24T23:30:00.798Z,5.60
2018-02-24T23:32:29.350Z,4.80
2018-02-24T23:34:57.560Z,4.40
2018-02-24T23:37:26.031Z,5.13
2018-02-24T23:39:54.438Z,5.63
2018-02-24T23:42:23.244Z,5.33
2018-02-24T23:44:51.930Z,4.50
2018-02-24T23:47:20.965Z,3.90
2018-02-24T23:49:49.508Z,4.30
2018-02-24T23:52:18.043Z,9.53
2018-02-24T23:54:46.427Z,5.00
2018-02-24T23:57:14.953Z,4.67
2018-02-24T23:59:43.304Z,4.70
